Time;durP1;ratioP1;P1;durP2;ratioP2;P2;SDS_P1;SDS_P2;PMS_P1;PMS_P2;Temp;Humidity;BMP_temperature;BMP_pressure;BME280_temperature;BME280_humidity;BME280_pressure;Samples;Min_cycle;Max_cycle;Signal;HPM_P1;HPM_P2
2021/04/08 00:00:18;;;;;;;8.18;1.80;;;2.30;90.10;;;;;;5052613;28;20089;-75
2021/04/08 00:02:44;;;;;;;10.27;2.20;;;2.30;90.80;;;;;;5070566;28;20040;-75
2021/04/08 00:05:12;;;;;;;12.93;2.20;;;2.30;90.90;;;;;;5070836;28;20068;-75
2021/04/08 00:07:38;;;;;;;8.30;1.75;;;2.30;90.50;;;;;;5070659;28;20043;-75
2021/04/08 00:10:05;;;;;;;10.00;1.90;;;2.30;91.60;;;;;;5070449;28;20052;-75
2021/04/08 00:12:31;;;;;;;10.05;1.83;;;2.40;91.10;;;;;;5070042;28;20553;-75
2021/04/08 00:14:56;;;;;;;11.27;2.20;;;2.40;92.10;;;;;;5049490;28;20119;-75
2021/04/08 00:17:22;;;;;;;10.95;2.33;;;2.50;90.70;;;;;;5067955;28;20127;-75
2021/04/08 00:19:48;;;;;;;12.27;2.35;;;2.40;90.30;;;;;;5069556;28;20029;-77
2021/04/08 00:22:13;;;;;;;13.77;2.00;;;2.50;91.80;;;;;;5051219;28;20037;-76
2021/04/08 00:24:39;;;;;;;10.68;2.35;;;2.50;89.20;;;;;;5069410;28;20082;-76
2021/04/08 00:27:06;;;;;;;8.35;1.98;;;2.50;90.90;;;;;;5067902;28;20115;-76
2021/04/08 00:29:32;;;;;;;10.60;2.97;;;2.60;88.70;;;;;;5069557;28;20047;-76
2021/04/08 00:31:57;;;;;;;10.88;2.13;;;2.60;90.70;;;;;;5048926;28;20033;-76
2021/04/08 00:34:23;;;;;;;16.25;2.33;;;2.50;87.70;;;;;;5046558;28;20063;-76
2021/04/08 00:36:49;;;;;;;15.63;2.60;;;2.50;87.90;;;;;;5069530;28;20470;-76
2021/04/08 00:39:15;;;;;;;11.30;2.60;;;2.50;88.00;;;;;;5070166;28;20119;-76
2021/04/08 00:41:41;;;;;;;7.55;1.92;;;2.40;89.00;;;;;;5060768;28;20547;-76
2021/04/08 00:44:07;;;;;;;10.93;2.35;;;2.50;88.50;;;;;;5051576;28;20402;-76
2021/04/08 00:46:33;;;;;;;8.65;1.63;;;2.40;88.50;;;;;;5052783;28;20044;-76
2021/04/08 00:48:58;;;;;;;16.27;2.85;;;2.40;87.60;;;;;;5069407;28;20040;-76
2021/04/08 00:51:26;;;;;;;11.93;2.53;;;2.40;90.10;;;;;;5034266;28;20072;-76
2021/04/08 00:53:53;;;;;;;9.75;1.90;;;2.30;90.00;;;;;;5070013;28;20366;-76
2021/04/08 00:56:20;;;;;;;11.20;2.00;;;2.20;89.20;;;;;;5051645;28;20035;-76
2021/04/08 00:58:48;;;;;;;9.07;1.95;;;2.20;89.30;;;;;;5050918;28;20052;-76
2021/04/08 01:01:14;;;;;;;12.50;2.70;;;2.10;89.10;;;;;;5051649;28;20032;-76
2021/04/08 01:03:40;;;;;;;10.85;1.98;;;2.00;89.70;;;;;;5069348;28;20049;-76
2021/04/08 01:06:06;;;;;;;10.85;2.05;;;1.90;90.20;;;;;;5069170;28;20036;-76
2021/04/08 01:08:33;;;;;;;11.75;2.25;;;1.90;90.50;;;;;;5069900;28;20086;-76
2021/04/08 01:10:59;;;;;;;5.32;1.88;;;1.80;90.30;;;;;;5049021;28;20110;-76
2021/04/08 01:13:26;;;;;;;9.75;2.10;;;1.70;90.30;;;;;;5062000;28;20074;-76
2021/04/08 01:15:52;;;;;;;11.45;2.53;;;1.70;90.20;;;;;;5068847;28;20052;-76
2021/04/08 01:18:43;;;;;;;9.60;1.95;;;1.60;90.70;;;;;;5069702;28;20067;-76
2021/04/08 01:21:24;;;;;;;11.70;1.80;;;1.60;90.70;;;;;;5068311;28;20520;-76
2021/04/08 01:24:24;;;;;;;8.43;1.50;;;1.60;91.00;;;;;;5061849;28;20046;-76
2021/04/08 01:27:17;;;;;;;9.70;1.63;;;1.60;91.70;;;;;;5065524;28;20047;-76
2021/04/08 01:29:59;;;;;;;8.38;1.40;;;1.60;91.80;;;;;;5053640;28;20032;-76
2021/04/08 01:32:26;;;;;;;5.72;1.20;;;1.70;91.70;;;;;;5056001;28;20038;-76
2021/04/08 01:34:55;;;;;;;8.90;1.45;;;1.80;91.90;;;;;;5056069;28;20489;-76
2021/04/08 01:37:28;;;;;;;9.52;1.42;;;1.90;92.50;;;;;;5074112;28;20135;-76
2021/04/08 01:39:56;;;;;;;10.15;1.90;;;2.00;93.10;;;;;;5072940;28;20497;-76
2021/04/08 01:42:24;;;;;;;4.63;1.02;;;2.20;93.00;;;;;;5055926;28;20393;-76
2021/04/08 01:44:52;;;;;;;6.70;1.63;;;2.20;91.10;;;;;;5055426;28;20044;-76
2021/04/08 01:47:18;;;;;;;7.43;1.45;;;2.30;91.20;;;;;;5062546;28;20117;-76
2021/04/08 01:49:44;;;;;;;7.55;1.38;;;2.30;90.70;;;;;;5072985;28;20090;-76
2021/04/08 01:52:15;;;;;;;9.55;1.20;;;2.30;90.90;;;;;;5053976;28;20071;-76
2021/04/08 01:54:44;;;;;;;8.23;1.30;;;2.50;92.40;;;;;;5072262;28;20052;-76
2021/04/08 01:57:12;;;;;;;9.45;1.35;;;2.50;90.30;;;;;;5072944;28;20126;-76
2021/04/08 01:59:41;;;;;;;6.90;1.50;;;2.60;91.40;;;;;;5071393;28;20098;-76
2021/04/08 02:02:07;;;;;;;7.78;1.50;;;2.60;91.30;;;;;;5053456;28;20064;-76
2021/04/08 02:04:33;;;;;;;5.85;1.33;;;2.70;91.50;;;;;;5070242;28;20062;-76
2021/04/08 02:07:01;;;;;;;7.35;1.35;;;2.70;91.00;;;;;;5071935;28;20040;-76
2021/04/08 02:09:27;;;;;;;4.65;1.40;;;2.70;91.30;;;;;;5070603;28;20786;-76
2021/04/08 02:11:54;;;;;;;5.55;1.42;;;2.60;90.40;;;;;;5071454;28;20150;-76
2021/04/08 02:14:21;;;;;;;10.27;1.50;;;2.70;91.00;;;;;;5071002;28;20024;-76
2021/04/08 02:16:49;;;;;;;6.97;1.48;;;2.60;90.10;;;;;;5072585;28;20036;-76
2021/04/08 02:19:23;;;;;;;9.55;1.48;;;2.60;90.20;;;;;;5055487;28;20068;-76
2021/04/08 02:21:53;;;;;;;5.68;1.27;;;2.50;89.50;;;;;;5050897;28;20028;-76
2021/04/08 02:24:19;;;;;;;2.03;0.68;;;2.60;91.30;;;;;;5070433;28;20025;-76
2021/04/08 02:26:46;;;;;;;5.45;1.00;;;2.60;90.30;;;;;;5053810;28;20132;-76
2021/04/08 02:29:14;;;;;;;7.82;1.38;;;2.60;90.70;;;;;;5072368;28;20028;-76
2021/04/08 02:31:41;;;;;;;4.97;0.98;;;2.60;90.70;;;;;;5072438;28;20050;-76
2021/04/08 02:34:08;;;;;;;8.30;1.15;;;2.60;91.00;;;;;;5043055;28;20075;-76
2021/04/08 02:36:36;;;;;;;5.75;1.48;;;2.60;90.60;;;;;;5066893;28;20052;-76
2021/04/08 02:39:05;;;;;;;6.15;1.00;;;2.70;90.40;;;;;;5072880;28;20063;-76
2021/04/08 02:41:35;;;;;;;4.97;1.30;;;2.60;88.90;;;;;;5070325;28;20082;-76
2021/04/08 02:44:01;;;;;;;5.88;1.13;;;2.70;91.00;;;;;;5071269;28;20058;-76
2021/04/08 02:46:26;;;;;;;5.82;1.20;;;2.60;90.50;;;;;;5071463;28;20127;-76
2021/04/08 02:48:52;;;;;;;8.68;1.50;;;2.70;91.30;;;;;;5071263;28;20032;-76
2021/04/08 02:51:27;;;;;;;5.03;0.90;;;2.70;90.90;;;;;;5054010;28;20029;-76
2021/04/08 02:54:10;;;;;;;5.88;1.15;;;2.70;91.40;;;;;;5071731;28;20032;-76
2021/04/08 02:56:51;;;;;;;6.05;0.85;;;2.70;91.00;;;;;;5069356;28;20462;-76
2021/04/08 02:59:20;;;;;;;6.00;0.95;;;2.80;91.40;;;;;;5063163;28;20040;-76
2021/04/08 03:02:01;;;;;;;8.48;1.23;;;2.70;88.60;;;;;;5070381;28;20040;-76
2021/04/08 03:04:28;;;;;;;6.38;1.95;;;2.70;90.80;;;;;;5054280;28;20059;-76
2021/04/08 03:06:54;;;;;;;6.28;1.00;;;2.70;91.10;;;;;;5061591;28;20040;-76
2021/04/08 03:09:28;;;;;;;6.53;1.27;;;2.70;90.60;;;;;;5053993;28;20040;-76
2021/04/08 03:11:55;;;;;;;6.15;1.23;;;2.60;90.60;;;;;;5069692;28;20048;-76
2021/04/08 03:14:22;;;;;;;8.77;1.90;;;2.60;90.40;;;;;;5057495;28;20093;-76
2021/04/08 03:16:49;;;;;;;6.57;1.25;;;2.60;88.50;;;;;;5069953;28;20048;-76
2021/04/08 03:19:22;;;;;;;5.97;0.93;;;2.60;90.50;;;;;;5070497;28;20044;-76
2021/04/08 03:21:48;;;;;;;4.90;1.40;;;2.70;91.50;;;;;;5053563;28;20123;-76
2021/04/08 03:24:16;;;;;;;7.93;1.50;;;2.70;90.00;;;;;;5070379;28;20741;-76
2021/04/08 03:26:43;;;;;;;6.38;1.20;;;2.60;89.70;;;;;;5070717;28;20044;-76
2021/04/08 03:29:09;;;;;;;6.18;1.13;;;2.60;90.60;;;;;;5070774;28;20040;-76
2021/04/08 03:31:39;;;;;;;8.13;1.38;;;2.60;90.00;;;;;;5046065;28;20033;-76
2021/04/08 03:34:05;;;;;;;7.20;1.23;;;2.60;90.70;;;;;;5052394;28;20036;-76
2021/04/08 03:36:30;;;;;;;6.93;1.20;;;2.70;91.60;;;;;;5070725;28;20037;-76
2021/04/08 03:38:57;;;;;;;6.72;1.15;;;2.70;89.50;;;;;;5071586;28;20059;-76
2021/04/08 03:41:24;;;;;;;4.93;1.00;;;2.80;89.00;;;;;;5070946;28;20067;-76
2021/04/08 03:43:50;;;;;;;7.45;1.20;;;2.90;90.30;;;;;;5070186;28;20068;-76
2021/04/08 03:46:18;;;;;;;8.75;1.80;;;2.80;90.90;;;;;;5070920;28;20052;-76
2021/04/08 03:48:46;;;;;;;6.00;1.10;;;2.90;90.50;;;;;;5070873;28;20040;-76
2021/04/08 03:51:14;;;;;;;5.07;1.00;;;2.80;91.10;;;;;;5071416;28;20094;-76
2021/04/08 03:53:41;;;;;;;5.22;1.08;;;2.90;90.90;;;;;;5070776;28;20039;-76
2021/04/08 03:56:08;;;;;;;6.43;1.60;;;2.80;90.70;;;;;;5071277;28;20094;-76
2021/04/08 03:58:35;;;;;;;6.40;1.33;;;2.80;89.90;;;;;;5053728;28;20047;-76
2021/04/08 04:01:01;;;;;;;5.82;1.17;;;2.80;91.40;;;;;;5053189;28;20491;-76
2021/04/08 04:03:31;;;;;;;7.43;1.10;;;2.70;88.00;;;;;;5063104;28;20045;-76
2021/04/08 04:05:58;;;;;;;7.25;1.23;;;2.70;90.30;;;;;;5040654;28;20111;-76
2021/04/08 04:08:25;;;;;;;3.83;1.00;;;2.70;89.90;;;;;;5069183;28;20036;-76
2021/04/08 04:10:50;;;;;;;5.05;1.08;;;2.60;90.80;;;;;;5050599;28;20048;-76
2021/04/08 04:13:16;;;;;;;8.20;1.70;;;2.60;90.00;;;;;;5052510;28;20039;-75
2021/04/08 04:15:47;;;;;;;5.72;1.45;;;2.60;91.40;;;;;;5070423;28;20393;-75
2021/04/08 04:18:16;;;;;;;7.93;1.95;;;2.60;91.50;;;;;;5069667;28;20036;-75
2021/04/08 04:20:43;;;;;;;4.80;1.10;;;2.60;87.30;;;;;;5051977;28;20051;-75
2021/04/08 04:23:09;;;;;;;3.08;0.98;;;2.60;91.00;;;;;;5052918;28;20108;-75
2021/04/08 04:25:34;;;;;;;6.00;1.88;;;2.70;91.00;;;;;;5089050;22;20127;-67
2021/04/08 04:28:00;;;;;;;6.70;1.60;;;2.70;89.90;;;;;;5088655;28;20044;-67
2021/04/08 04:30:26;;;;;;;8.02;1.40;;;2.70;90.40;;;;;;5090087;28;20427;-67
2021/04/08 04:32:55;;;;;;;8.35;1.50;;;2.70;90.40;;;;;;5088351;28;20473;-67
2021/04/08 04:35:21;;;;;;;7.25;1.60;;;2.70;88.00;;;;;;5088159;28;20033;-67
2021/04/08 04:37:48;;;;;;;9.98;2.08;;;2.70;86.80;;;;;;5089114;28;20039;-67
2021/04/08 04:40:15;;;;;;;5.38;1.30;;;2.60;88.20;;;;;;5089958;28;20055;-67
2021/04/08 04:42:41;;;;;;;7.25;1.70;;;2.60;88.40;;;;;;5086642;28;20481;-67
2021/04/08 04:45:08;;;;;;;5.68;1.30;;;2.60;88.80;;;;;;5090872;28;20036;-67
2021/04/08 04:47:33;;;;;;;7.70;1.45;;;2.60;88.60;;;;;;5087397;28;20590;-67
2021/04/08 04:49:59;;;;;;;8.07;1.33;;;2.70;88.80;;;;;;5090845;28;20059;-67
2021/04/08 04:52:24;;;;;;;6.18;1.60;;;2.60;87.80;;;;;;5088394;28;20036;-67
2021/04/08 04:54:50;;;;;;;7.53;1.40;;;2.60;89.50;;;;;;5090831;28;20040;-67
2021/04/08 04:57:16;;;;;;;5.50;1.45;;;2.60;89.00;;;;;;5087872;28;20050;-67
2021/04/08 04:59:42;;;;;;;5.50;1.63;;;2.60;87.10;;;;;;5090230;28;20768;-67
2021/04/08 05:02:10;;;;;;;5.38;1.70;;;2.60;88.10;;;;;;5089304;28;20040;-67
2021/04/08 05:04:38;;;;;;;5.68;1.40;;;2.50;87.80;;;;;;5090504;28;20043;-67
2021/04/08 05:07:03;;;;;;;9.88;1.98;;;2.50;89.30;;;;;;5090726;28;20036;-67
2021/04/08 05:09:33;;;;;;;7.85;2.42;;;2.50;87.60;;;;;;5093512;28;20032;-67
2021/04/08 05:11:59;;;;;;;5.45;1.65;;;2.50;87.30;;;;;;5091425;28;20408;-67
2021/04/08 05:14:25;;;;;;;6.32;1.55;;;2.50;87.50;;;;;;5091759;28;20525;-67
2021/04/08 05:16:50;;;;;;;6.93;1.45;;;2.50;87.50;;;;;;5093600;28;20132;-67
2021/04/08 05:19:18;;;;;;;8.18;1.40;;;2.60;87.50;;;;;;5093289;28;20044;-67
2021/04/08 05:21:44;;;;;;;6.90;1.63;;;2.70;87.90;;;;;;5092787;28;20374;-67
2021/04/08 05:24:09;;;;;;;5.13;1.70;;;2.70;86.90;;;;;;5091365;28;20070;-67
2021/04/08 05:26:35;;;;;;;5.50;1.42;;;2.70;86.90;;;;;;5094413;28;20052;-67
2021/04/08 05:29:01;;;;;;;10.73;2.00;;;2.80;88.10;;;;;;5094278;28;20039;-67
2021/04/08 05:31:26;;;;;;;4.07;1.08;;;2.80;86.70;;;;;;5094192;28;20047;-67
2021/04/08 05:33:52;;;;;;;8.40;1.83;;;2.80;87.20;;;;;;5092860;28;20634;-68
2021/04/08 05:36:18;;;;;;;6.50;1.42;;;2.80;86.90;;;;;;5093816;28;20047;-67
2021/04/08 05:38:43;;;;;;;10.13;1.95;;;2.90;86.60;;;;;;5093668;28;20036;-67
2021/04/08 05:41:09;;;;;;;6.75;1.58;;;3.00;87.00;;;;;;5092912;28;20458;-67
2021/04/08 05:43:37;;;;;;;10.10;1.77;;;3.10;86.40;;;;;;5087964;28;20067;-67
2021/04/08 05:46:03;;;;;;;6.35;1.70;;;3.00;84.90;;;;;;5090441;28;20093;-67
2021/04/08 05:48:29;;;;;;;5.93;1.27;;;3.10;87.70;;;;;;5093873;28;20085;-67
2021/04/08 05:50:55;;;;;;;4.85;1.25;;;3.20;89.70;;;;;;5092728;28;20074;-67
2021/04/08 05:53:21;;;;;;;8.50;1.73;;;3.40;88.90;;;;;;5086983;28;20063;-67
2021/04/08 05:55:46;;;;;;;4.72;1.35;;;3.30;84.20;;;;;;5093395;28;20043;-67
2021/04/08 05:58:12;;;;;;;9.25;1.35;;;3.30;86.40;;;;;;5092072;28;20036;-67
2021/04/08 06:00:38;;;;;;;5.68;2.28;;;3.40;89.50;;;;;;5092015;28;20039;-68
2021/04/08 06:03:03;;;;;;;8.10;1.50;;;3.40;86.30;;;;;;5093768;28;20040;-68
2021/04/08 06:05:29;;;;;;;6.38;1.60;;;3.40;88.50;;;;;;5092968;28;20512;-67
2021/04/08 06:07:55;;;;;;;7.07;1.48;;;3.40;86.20;;;;;;5092406;28;20453;-67
2021/04/08 06:10:21;;;;;;;7.65;1.77;;;3.50;88.70;;;;;;5093220;28;20040;-67
2021/04/08 06:12:47;;;;;;;7.57;1.58;;;3.50;83.90;;;;;;5088745;28;20062;-67
2021/04/08 06:15:13;;;;;;;10.27;2.08;;;3.50;83.20;;;;;;5092458;28;20036;-67
2021/04/08 06:17:39;;;;;;;5.45;1.80;;;3.60;84.80;;;;;;5091871;28;20047;-67
2021/04/08 06:20:06;;;;;;;6.07;1.75;;;3.80;83.40;;;;;;5092386;28;20032;-67
2021/04/08 06:22:32;;;;;;;9.88;1.70;;;3.90;84.70;;;;;;5083658;28;20032;-68
2021/04/08 06:24:58;;;;;;;3.72;1.45;;;4.20;87.10;;;;;;5076430;28;20036;-67
2021/04/08 06:27:24;;;;;;;7.47;1.50;;;4.40;83.20;;;;;;5089550;28;20051;-67
2021/04/08 06:29:50;;;;;;;6.18;1.50;;;4.40;84.80;;;;;;5090390;28;20084;-67
2021/04/08 06:32:15;;;;;;;5.70;1.55;;;4.50;85.40;;;;;;5093184;28;20039;-68
2021/04/08 06:34:44;;;;;;;5.47;1.25;;;4.50;85.10;;;;;;5092971;28;20032;-67
2021/04/08 06:37:10;;;;;;;9.85;2.03;;;4.50;83.00;;;;;;5092240;28;20377;-68
2021/04/08 06:39:36;;;;;;;3.78;1.20;;;4.50;80.00;;;;;;5080717;28;20044;-67
2021/04/08 06:42:04;;;;;;;5.90;1.60;;;4.40;80.50;;;;;;5092810;28;20044;-67
2021/04/08 06:44:31;;;;;;;4.53;1.42;;;4.40;82.60;;;;;;5093060;28;20047;-67
2021/04/08 06:47:01;;;;;;;4.40;1.65;;;4.40;82.30;;;;;;5092910;28;20038;-68
2021/04/08 06:50:01;;;;;;;4.38;1.40;;;4.40;83.20;;;;;;5091037;28;20044;-68
2021/04/08 06:52:29;;;;;;;5.67;1.50;;;4.40;82.10;;;;;;5089438;28;20036;-67
2021/04/08 06:54:55;;;;;;;4.03;1.10;;;4.40;85.30;;;;;;5092730;28;20072;-67
2021/04/08 06:57:21;;;;;;;4.03;1.25;;;4.40;84.20;;;;;;5092174;28;20109;-68
2021/04/08 06:59:47;;;;;;;5.35;1.20;;;4.30;83.00;;;;;;5091711;28;20040;-68
2021/04/08 07:02:17;;;;;;;4.80;1.42;;;4.40;84.50;;;;;;5086618;28;20040;-67
2021/04/08 07:04:43;;;;;;;4.90;1.70;;;4.40;80.30;;;;;;5092697;28;20032;-68
2021/04/08 07:07:09;;;;;;;5.45;3.05;;;4.40;80.10;;;;;;5090501;28;20487;-68
2021/04/08 07:09:35;;;;;;;4.50;1.70;;;4.40;81.60;;;;;;5092345;28;20469;-68
2021/04/08 07:12:01;;;;;;;6.15;1.52;;;4.50;83.20;;;;;;5090664;28;20127;-68
2021/04/08 07:14:27;;;;;;;4.22;1.10;;;4.60;83.50;;;;;;5088571;28;20024;-68
2021/04/08 07:16:53;;;;;;;5.05;1.40;;;4.60;81.10;;;;;;5074414;28;20033;-68
2021/04/08 07:19:20;;;;;;;3.38;1.40;;;4.60;81.30;;;;;;5090591;28;20040;-68
2021/04/08 07:21:46;;;;;;;5.40;1.30;;;4.70;82.60;;;;;;5091057;28;20081;-68
2021/04/08 07:24:12;;;;;;;4.60;1.48;;;4.70;80.80;;;;;;5091304;28;20032;-68
2021/04/08 07:27:00;;;;;;;4.50;1.30;;;4.70;81.40;;;;;;5084827;28;20053;-68
2021/04/08 07:29:38;;;;;;;5.18;1.35;;;4.80;80.10;;;;;;5090368;28;20577;-68
2021/04/08 07:32:08;;;;;;;6.00;1.40;;;4.80;81.00;;;;;;5090796;28;20485;-68
2021/04/08 07:34:45;;;;;;;4.38;1.25;;;5.00;81.20;;;;;;5091044;28;20044;-68
2021/04/08 07:37:11;;;;;;;6.35;1.42;;;5.00;80.00;;;;;;5086259;28;20067;-68
2021/04/08 07:39:45;;;;;;;10.10;1.85;;;5.10;80.70;;;;;;5089628;28;20436;-68
2021/04/08 07:42:17;;;;;;;6.15;1.25;;;5.20;80.80;;;;;;5090014;28;20040;-68
2021/04/08 07:44:44;;;;;;;3.28;1.13;;;5.20;79.90;;;;;;5090675;28;20133;-68
2021/04/08 07:47:43;;;;;;;6.65;1.58;;;5.30;81.30;;;;;;5089504;28;20044;-67
2021/04/08 07:50:11;;;;;;;5.70;2.05;;;5.40;80.10;;;;;;5091029;28;20036;-68
2021/04/08 07:52:48;;;;;;;2.28;1.10;;;5.40;79.70;;;;;;5091193;28;20027;-67
2021/04/08 07:55:18;;;;;;;4.10;1.30;;;5.40;77.30;;;;;;5090326;28;20253;-68
2021/04/08 07:57:59;;;;;;;4.95;1.13;;;5.50;79.00;;;;;;5090909;28;20040;-68
2021/04/08 08:00:43;;;;;;;6.70;1.25;;;5.60;78.30;;;;;;5104352;28;20165;-67
2021/04/08 08:03:25;;;;;;;13.27;5.13;;;5.80;79.20;;;;;;5082325;28;20032;-68
2021/04/08 08:05:52;;;;;;;2.90;1.67;;;6.00;79.30;;;;;;5090181;28;20048;-68
2021/04/08 08:08:24;;;;;;;5.65;1.52;;;6.20;77.80;;;;;;5087923;28;20048;-68
2021/04/08 08:10:56;;;;;;;5.30;1.17;;;6.40;75.60;;;;;;5078660;28;20047;-68
2021/04/08 08:13:28;;;;;;;5.45;1.40;;;6.70;74.60;;;;;;5086108;28;20032;-68
2021/04/08 08:15:55;;;;;;;;;;;6.90;75.00;;;;;;5090665;28;20081;-68
2021/04/08 08:18:41;;;;;;;4.47;1.20;;;7.00;75.80;;;;;;5089360;28;19951;-68
2021/04/08 08:21:11;;;;;;;3.53;0.75;;;7.20;74.30;;;;;;5090756;28;20093;-68
2021/04/08 08:23:40;;;;;;;6.95;1.58;;;7.50;72.20;;;;;;5093228;28;20063;-68
2021/04/08 08:26:23;;;;;;;3.55;0.98;;;7.70;71.70;;;;;;5092705;28;20056;-68
2021/04/08 08:28:49;;;;;;;3.83;1.70;;;7.80;69.70;;;;;;5084109;28;20051;-68
2021/04/08 08:31:32;;;;;;;4.63;1.13;;;7.90;70.70;;;;;;5086649;28;20067;-68
2021/04/08 08:33:58;;;;;;;5.63;1.13;;;8.10;70.00;;;;;;5070744;28;20044;-68
2021/04/08 08:36:24;;;;;;;3.53;1.00;;;8.10;70.00;;;;;;5082569;28;20479;-68
2021/04/08 08:38:52;;;;;;;4.38;1.08;;;8.30;70.20;;;;;;5093552;28;20036;-69
2021/04/08 08:41:19;;;;;;;7.53;1.60;;;8.30;69.90;;;;;;5097397;28;20082;-68
2021/04/08 08:43:45;;;;;;;4.28;1.67;;;8.40;68.60;;;;;;5090114;28;20119;-68
2021/04/08 08:46:12;;;;;;;5.55;1.13;;;8.50;69.70;;;;;;5085704;28;20642;-68
2021/04/08 08:48:39;;;;;;;4.75;1.20;;;8.60;69.50;;;;;;5095431;28;20036;-68
2021/04/08 08:51:05;;;;;;;5.78;1.00;;;8.60;69.20;;;;;;5097228;28;20059;-69
2021/04/08 08:53:35;;;;;;;4.60;1.35;;;8.70;68.00;;;;;;5096284;28;20554;-68
2021/04/08 08:56:01;;;;;;;7.10;1.15;;;8.70;67.10;;;;;;5097422;28;20106;-68
2021/04/08 08:58:28;;;;;;;4.93;1.40;;;8.70;66.20;;;;;;5091437;28;20123;-68
2021/04/08 09:00:56;;;;;;;9.30;2.47;;;8.70;67.50;;;;;;5096472;28;20540;-68
2021/04/08 09:03:23;;;;;;;10.65;1.60;;;8.40;69.10;;;;;;5096551;28;20040;-68
2021/04/08 09:05:49;;;;;;;3.90;1.42;;;8.40;68.30;;;;;;5096924;28;20028;-68
2021/04/08 09:08:24;;;;;;;4.90;1.80;;;8.30;69.00;;;;;;5096822;28;20067;-68
2021/04/08 09:10:51;;;;;;;5.00;1.70;;;8.10;68.50;;;;;;5097065;28;20392;-68
2021/04/08 09:13:18;;;;;;;5.88;1.55;;;7.90;69.60;;;;;;5096991;28;20032;-68
2021/04/08 09:15:43;;;;;;;4.30;1.85;;;8.00;69.40;;;;;;5094192;28;20118;-69
2021/04/08 09:18:10;;;;;;;5.88;2.03;;;7.90;70.00;;;;;;5096859;28;20114;-69
2021/04/08 09:20:37;;;;;;;5.20;1.77;;;7.90;70.20;;;;;;5090788;28;20067;-69
2021/04/08 09:23:11;;;;;;;4.82;1.80;;;7.90;70.60;;;;;;5092834;28;20058;-69
2021/04/08 09:25:53;;;;;;;7.53;1.92;;;8.00;69.70;;;;;;5094432;28;20051;-69
2021/04/08 09:28:20;;;;;;;7.57;2.10;;;7.90;70.50;;;;;;5090606;28;20044;-69
2021/04/08 09:33:48;;;;;;;6.30;1.75;;;8.10;69.00;;;;;;5095447;28;20075;-69
2021/04/08 09:36:26;;;;;;;8.23;1.60;;;8.40;68.20;;;;;;5093447;28;20481;-69
2021/04/08 09:39:13;;;;;;;7.70;2.05;;;8.50;67.50;;;;;;5096683;28;20036;-69
2021/04/08 09:41:46;;;;;;;6.03;2.00;;;8.50;68.40;;;;;;5096182;28;20047;-69
2021/04/08 09:44:14;;;;;;;8.32;1.50;;;8.70;68.50;;;;;;5094179;28;20093;-69
2021/04/08 09:46:47;;;;;;;6.65;1.67;;;9.10;66.90;;;;;;5094629;28;20151;-69
2021/04/08 09:49:13;;;;;;;6.47;1.58;;;9.40;64.20;;;;;;5094194;28;20475;-69
2021/04/08 09:51:45;;;;;;;6.10;1.57;;;9.50;64.20;;;;;;5090399;28;20435;-69
2021/04/08 09:54:16;;;;;;;4.88;1.50;;;9.50;62.40;;;;;;5082643;28;20298;-69
2021/04/08 09:56:50;;;;;;;7.57;1.88;;;9.50;63.90;;;;;;5088115;28;20491;-69
2021/04/08 09:59:17;;;;;;;7.93;2.30;;;9.50;63.30;;;;;;5086203;28;20480;-69
2021/04/08 10:01:46;;;;;;;4.78;2.03;;;9.50;63.60;;;;;;5090540;28;20369;-69
2021/04/08 10:04:21;;;;;;;6.28;2.35;;;9.40;65.10;;;;;;5092520;28;20056;-69
2021/04/08 10:07:07;;;;;;;6.57;2.53;;;9.50;63.10;;;;;;5091197;28;20112;-69
2021/04/08 10:09:36;;;;;;;3.50;1.70;;;9.40;63.80;;;;;;5090192;28;20043;-69
2021/04/08 10:12:02;;;;;;;3.42;1.60;;;9.40;62.00;;;;;;5092137;28;20365;-69
2021/04/08 10:14:30;;;;;;;6.13;2.10;;;9.60;62.10;;;;;;5089645;28;20466;-69
2021/04/08 10:17:00;;;;;;;4.90;1.80;;;9.40;58.70;;;;;;5089897;28;20071;-69
2021/04/08 10:19:45;;;;;;;7.40;2.60;;;9.30;59.90;;;;;;5090564;28;20051;-69
2021/04/08 10:22:42;;;;;;;6.07;2.15;;;9.20;58.50;;;;;;5092568;28;20102;-69
2021/04/08 10:25:28;;;;;;;4.32;2.03;;;9.00;60.70;;;;;;5093662;28;20481;-70
2021/04/08 10:28:13;;;;;;;6.50;2.00;;;9.00;61.40;;;;;;5097942;28;20047;-69
2021/04/08 10:31:32;;;;;;;4.10;1.73;;;9.00;62.10;;;;;;5092072;28;20151;-69
2021/04/08 10:34:09;;;;;;;4.88;2.10;;;9.10;59.50;;;;;;5084661;28;20595;-69
2021/04/08 10:36:46;;;;;;;3.42;2.30;;;9.10;58.70;;;;;;5090162;28;20058;-69
2021/04/08 10:39:15;;;;;;;7.18;2.30;;;9.30;60.20;;;;;;5090896;28;20036;-69
2021/04/08 10:42:10;;;;;;;3.15;1.85;;;9.30;61.40;;;;;;5091873;28;20555;-69
2021/04/08 10:44:42;;;;;;;4.00;1.95;;;9.50;57.40;;;;;;5089792;28;20036;-69
2021/04/08 10:47:08;;;;;;;5.20;2.17;;;9.80;59.30;;;;;;5092080;28;20493;-69
2021/04/08 10:49:38;;;;;;;3.88;2.20;;;9.70;59.90;;;;;;5091433;28;20100;-68
2021/04/08 10:52:07;;;;;;;4.50;2.80;;;9.80;59.50;;;;;;5091841;28;20439;-69
2021/04/08 10:54:35;;;;;;;4.95;2.58;;;9.80;59.40;;;;;;5091598;28;20056;-69
2021/04/08 10:57:02;;;;;;;5.05;2.85;;;9.80;60.10;;;;;;5090413;28;20046;-68
2021/04/08 10:59:28;;;;;;;4.07;2.40;;;10.00;55.50;;;;;;5089979;28;20044;-68
2021/04/08 11:01:55;;;;;;;6.40;2.33;;;9.90;55.80;;;;;;5091079;28;20028;-69
2021/04/08 11:04:22;;;;;;;2.60;2.38;;;9.90;57.20;;;;;;5091873;28;20032;-68
2021/04/08 11:06:49;;;;;;;5.38;2.17;;;9.90;56.70;;;;;;5090944;28;20032;-69
2021/04/08 11:09:27;;;;;;;3.70;2.85;;;9.90;57.90;;;;;;5090193;28;20044;-69
2021/04/08 11:11:53;;;;;;;3.05;2.60;;;9.80;54.80;;;;;;5089343;28;20040;-69
2021/04/08 11:14:24;;;;;;;3.47;2.10;;;9.70;56.20;;;;;;5086070;28;20415;-69
2021/04/08 11:16:51;;;;;;;3.72;2.83;;;9.60;55.80;;;;;;5090610;28;20040;-68
2021/04/08 11:19:17;;;;;;;3.80;2.60;;;9.60;57.20;;;;;;5089804;28;20431;-69
2021/04/08 11:21:43;;;;;;;3.80;2.72;;;9.70;56.50;;;;;;5088718;28;20036;-69
2021/04/08 11:24:10;;;;;;;4.75;3.20;;;9.90;57.10;;;;;;5089280;28;20063;-69
2021/04/08 11:26:52;;;;;;;6.10;3.50;;;10.00;55.40;;;;;;5086071;28;20096;-69
2021/04/08 11:29:19;;;;;;;;;;;9.90;52.30;;;;;;5088794;28;20050;-70
2021/04/08 11:31:44;;;;;;;3.85;3.47;;;10.00;57.60;;;;;;5090046;28;19916;-69
2021/04/08 11:34:10;;;;;;;3.72;2.63;;;10.00;56.70;;;;;;5087492;28;20034;-69
2021/04/08 11:36:35;;;;;;;4.82;3.72;;;10.10;55.70;;;;;;5088873;28;20040;-68
2021/04/08 11:39:10;;;;;;;5.10;3.30;;;10.10;52.30;;;;;;5089924;28;20180;-69
2021/04/08 11:41:36;;;;;;;5.57;4.15;;;10.20;57.40;;;;;;5089009;28;20032;-69
2021/04/08 11:44:02;;;;;;;3.53;3.22;;;10.20;52.30;;;;;;5090469;28;20107;-69
2021/04/08 11:46:37;;;;;;;4.60;3.38;;;10.30;57.70;;;;;;5091197;28;20526;-69
2021/04/08 11:49:15;;;;;;;5.13;3.88;;;10.40;48.30;;;;;;5090520;28;20470;-69
2021/04/08 11:51:40;;;;;;;5.55;4.10;;;10.20;50.60;;;;;;5091359;28;20845;-69
2021/04/08 11:54:12;;;;;;;5.32;4.30;;;10.30;52.70;;;;;;5086902;28;20036;-69
2021/04/08 11:56:40;;;;;;;4.70;4.13;;;10.30;52.20;;;;;;5084833;28;20561;-69
2021/04/08 11:59:19;;;;;;;5.13;3.95;;;10.20;52.10;;;;;;5088318;28;20114;-69
2021/04/08 12:01:51;;;;;;;5.13;4.20;;;10.10;51.70;;;;;;5089345;28;20032;-69
2021/04/08 12:04:19;;;;;;;4.93;4.13;;;10.10;52.10;;;;;;5090739;28;20125;-69
2021/04/08 12:06:57;;;;;;;6.38;4.90;;;10.10;54.40;;;;;;5088975;28;20043;-69
2021/04/08 12:09:42;;;;;;;6.97;5.03;;;10.00;51.70;;;;;;5089558;28;20077;-69
2021/04/08 12:12:08;;;;;;;5.78;4.95;;;10.10;52.60;;;;;;5071339;28;20036;-69
2021/04/08 12:15:07;;;;;;;5.85;5.22;;;10.00;54.20;;;;;;5087918;28;20048;-69
2021/04/08 12:17:33;;;;;;;4.82;3.95;;;10.00;54.70;;;;;;5055699;28;20056;-68
2021/04/08 12:20:18;;;;;;;5.88;5.32;;;10.30;53.30;;;;;;5087399;28;20470;-69
2021/04/08 12:22:44;;;;;;;7.00;5.18;;;10.30;52.50;;;;;;5080318;28;20044;-69
2021/04/08 12:25:12;;;;;;;6.57;5.80;;;10.50;53.80;;;;;;5091279;28;20032;-69
2021/04/08 12:27:39;;;;;;;10.23;5.88;;;10.70;53.30;;;;;;5093510;28;20491;-69
2021/04/08 12:30:07;;;;;;;7.25;5.25;;;10.60;51.80;;;;;;5098923;28;20028;-69
2021/04/08 12:32:33;;;;;;;9.43;5.40;;;10.60;52.30;;;;;;5090112;28;20032;-69
2021/04/08 12:34:59;;;;;;;7.18;5.88;;;10.50;54.60;;;;;;5090146;28;20051;-69
2021/04/08 12:37:25;;;;;;;7.00;6.28;;;10.60;53.20;;;;;;5090169;28;20040;-69
2021/04/08 12:39:52;;;;;;;6.60;5.97;;;10.70;52.90;;;;;;5089122;28;20039;-69
2021/04/08 12:42:18;;;;;;;6.97;6.28;;;10.60;52.30;;;;;;5106671;28;20039;-69
2021/04/08 12:44:43;;;;;;;9.23;6.10;;;10.50;53.60;;;;;;5089241;28;20043;-69
2021/04/08 12:47:10;;;;;;;7.32;6.10;;;10.30;53.60;;;;;;5090188;28;20089;-69
2021/04/08 12:49:36;;;;;;;8.10;6.43;;;10.40;53.20;;;;;;5090983;28;20354;-69
2021/04/08 12:52:02;;;;;;;7.60;6.53;;;10.10;53.10;;;;;;5088555;28;20078;-69
2021/04/08 12:54:31;;;;;;;7.50;5.75;;;10.30;55.70;;;;;;5087175;28;20036;-69
2021/04/08 12:56:56;;;;;;;7.70;6.90;;;10.70;51.80;;;;;;5087754;28;20027;-69
2021/04/08 12:59:22;;;;;;;7.95;6.78;;;10.70;52.20;;;;;;5088547;28;20485;-69
2021/04/08 13:01:48;;;;;;;6.57;5.40;;;10.80;54.30;;;;;;5087633;28;20547;-69
2021/04/08 13:04:13;;;;;;;7.95;5.80;;;11.00;53.40;;;;;;5088924;28;20048;-69
2021/04/08 13:06:39;;;;;;;9.32;7.68;;;10.90;53.30;;;;;;5087432;28;20036;-70
2021/04/08 13:09:05;;;;;;;8.63;7.78;;;10.80;52.60;;;;;;5088311;28;20385;-69